S.y Nikata — MNVV3 — position and weather

sailwx.info

Track history (hours):
 
Tides and Currents Weather Stations Pressure Air Temp Water Temp Dewpoint Dewpoint Depression Visibility Wind Speed Wind Dir Waves Ship Positions

S.y Nikata

Last reported at 2014-Oct-30 16:04 UTC. Time now 2014-Nov-29 06:21 UTC.
Position N 39°34' E 002°38'.
Warning: this ship's position is 29 days out of date.

Length 24 m.

Type: Sailing vessel. MMSI: 235038688.

Date/timePositionNaut miles runAvg speedWind from/ knotsBaromVisibWave heightAir tempDewpointWater temp
2014-Oct-30 16:04N 39°34' E 002°38'0 0.0
2014-Oct-30 15:34N 39°34' E 002°38'0 0.0
2014-Oct-30 14:31N 39°34' E 002°38'0 0.0
2014-Oct-30 13:31N 39°34' E 002°38'0 0.0
2014-Oct-30 12:31N 39°34' E 002°38'0 0.0
2014-Oct-30 11:31N 39°34' E 002°38'0 0.0
2014-Oct-30 10:31N 39°34' E 002°38'0 0.0
2014-Oct-30 09:31N 39°34' E 002°38'0 0.0
2014-Oct-30 08:31N 39°34' E 002°38'0 0.0
2014-Oct-30 07:31N 39°34' E 002°38'2 2.3
2014-Oct-30 06:33N 39°32' E 002°39'5 4.7
2014-Oct-30 05:32N 39°27' E 002°41'15 7.6
2014-Oct-30 03:30N 39°17' E 002°56'  
2014-Oct-25 11:07N 44°24' E 008°51'42 0.8
2014-Oct-23 09:32N 44°04' E 009°42'6 6.6
2014-Oct-23 08:33N 44°01' E 009°50'4 4.0
2014-Oct-23 07:31N 44°05' E 009°51'2 2.1
2014-Oct-23 06:31N 44°03' E 009°51'0 0.0
2014-Oct-23 05:25N 44°03' E 009°51'0 0.0
2014-Oct-23 04:31N 44°03' E 009°51'0 0.0
2014-Oct-23 03:31N 44°03' E 009°51'0 0.0
2014-Oct-23 02:16N 44°03' E 009°51'0 0.0
2014-Oct-23 01:22N 44°03' E 009°51'0 0.0
2014-Oct-23 00:31N 44°03' E 009°51'0 0.0
2014-Oct-22 23:31N 44°03' E 009°51'0 0.0
2014-Oct-22 22:31N 44°03' E 009°51'0 0.0
2014-Oct-22 21:31N 44°03' E 009°51'0 0.0
2014-Oct-22 20:31N 44°03' E 009°51'0 0.0
2014-Oct-22 19:31N 44°03' E 009°51'0 0.0
2014-Oct-22 18:31N 44°03' E 009°51'0 0.0
2014-Oct-22 17:31N 44°03' E 009°51'0 0.0
2014-Oct-22 16:31N 44°03' E 009°51'0 0.0
2014-Oct-22 15:28N 44°03' E 009°51'0 0.0
2014-Oct-22 14:31N 44°03' E 009°51'0 0.0
2014-Oct-22 13:31N 44°03' E 009°51'0 0.0
2014-Oct-22 12:28N 44°03' E 009°51'0 0.0
2014-Oct-22 11:20N 44°03' E 009°51'0 0.0
2014-Oct-22 10:17N 44°03' E 009°51'0 0.2
2014-Oct-22 09:32N 44°03' E 009°51'0 0.0
2014-Oct-22 08:23N 44°03' E 009°51'0 0.0
2014-Oct-22 07:23N 44°03' E 009°51'0 0.0
2014-Oct-22 06:08N 44°03' E 009°51'0 0.0
2014-Oct-22 05:29N 44°03' E 009°51'0 0.0
2014-Oct-22 04:26N 44°03' E 009°51'0 0.0
2014-Oct-22 03:14N 44°03' E 009°51'0 0.0
2014-Oct-22 02:32N 44°03' E 009°51'0 0.0
2014-Oct-22 01:26N 44°03' E 009°51'0 0.0
2014-Oct-22 00:11N 44°03' E 009°51'0 0.0
2014-Oct-21 23:14N 44°03' E 009°51'0 0.0
2014-Oct-21 22:32N 44°03' E 009°51'0 0.0
2014-Oct-21 21:29N 44°03' E 009°51'0 0.0
2014-Oct-21 20:32N 44°03' E 009°51'0 0.0
2014-Oct-21 19:23N 44°03' E 009°51'0 0.0
2014-Oct-21 18:32N 44°03' E 009°51'0 0.0
2014-Oct-21 17:29N 44°03' E 009°51'0 0.0
2014-Oct-21 16:32N 44°03' E 009°51'0 0.0
2014-Oct-21 15:17N 44°03' E 009°51'  
Track history (hours):
 
Tides and Currents Weather Stations Pressure Air Temp Water Temp Dewpoint Dewpoint Depression Visibility Wind Speed Wind Dir Waves Ship Positions

S.y Nikata

Last reported at 2014-Oct-30 16:04 UTC. Time now 2014-Nov-29 06:21 UTC.
Position N 39°34' E 002°38'.
Warning: this ship's position is 29 days out of date.

Length 24 m.

Type: Sailing vessel. MMSI: 235038688.

Date/timePositionNaut miles runAvg speedWind from/ knotsBaromVisibWave heightAir tempDewpointWater temp
2014-Oct-30 16:04N 39°34' E 002°38'0 0.0
2014-Oct-30 15:34N 39°34' E 002°38'0 0.0
2014-Oct-30 14:31N 39°34' E 002°38'0 0.0
2014-Oct-30 13:31N 39°34' E 002°38'0 0.0
2014-Oct-30 12:31N 39°34' E 002°38'0 0.0
2014-Oct-30 11:31N 39°34' E 002°38'0 0.0
2014-Oct-30 10:31N 39°34' E 002°38'0 0.0
2014-Oct-30 09:31N 39°34' E 002°38'0 0.0
2014-Oct-30 08:31N 39°34' E 002°38'0 0.0
2014-Oct-30 07:31N 39°34' E 002°38'2 2.3
2014-Oct-30 06:33N 39°32' E 002°39'5 4.7
2014-Oct-30 05:32N 39°27' E 002°41'15 7.6
2014-Oct-30 03:30N 39°17' E 002°56'  
2014-Oct-25 11:07N 44°24' E 008°51'42 0.8
2014-Oct-23 09:32N 44°04' E 009°42'6 6.6
2014-Oct-23 08:33N 44°01' E 009°50'4 4.0
2014-Oct-23 07:31N 44°05' E 009°51'2 2.1
2014-Oct-23 06:31N 44°03' E 009°51'0 0.0
2014-Oct-23 05:25N 44°03' E 009°51'0 0.0
2014-Oct-23 04:31N 44°03' E 009°51'0 0.0
2014-Oct-23 03:31N 44°03' E 009°51'0 0.0
2014-Oct-23 02:16N 44°03' E 009°51'0 0.0
2014-Oct-23 01:22N 44°03' E 009°51'0 0.0
2014-Oct-23 00:31N 44°03' E 009°51'0 0.0
2014-Oct-22 23:31N 44°03' E 009°51'0 0.0
2014-Oct-22 22:31N 44°03' E 009°51'0 0.0
2014-Oct-22 21:31N 44°03' E 009°51'0 0.0
2014-Oct-22 20:31N 44°03' E 009°51'0 0.0
2014-Oct-22 19:31N 44°03' E 009°51'0 0.0
2014-Oct-22 18:31N 44°03' E 009°51'0 0.0
2014-Oct-22 17:31N 44°03' E 009°51'0 0.0
2014-Oct-22 16:31N 44°03' E 009°51'0 0.0
2014-Oct-22 15:28N 44°03' E 009°51'0 0.0
2014-Oct-22 14:31N 44°03' E 009°51'0 0.0
2014-Oct-22 13:31N 44°03' E 009°51'0 0.0
2014-Oct-22 12:28N 44°03' E 009°51'0 0.0
2014-Oct-22 11:20N 44°03' E 009°51'0 0.0
2014-Oct-22 10:17N 44°03' E 009°51'0 0.2
2014-Oct-22 09:32N 44°03' E 009°51'0 0.0
2014-Oct-22 08:23N 44°03' E 009°51'0 0.0
2014-Oct-22 07:23N 44°03' E 009°51'0 0.0
2014-Oct-22 06:08N 44°03' E 009°51'0 0.0
2014-Oct-22 05:29N 44°03' E 009°51'0 0.0
2014-Oct-22 04:26N 44°03' E 009°51'0 0.0
2014-Oct-22 03:14N 44°03' E 009°51'0 0.0
2014-Oct-22 02:32N 44°03' E 009°51'0 0.0
2014-Oct-22 01:26N 44°03' E 009°51'0 0.0
2014-Oct-22 00:11N 44°03' E 009°51'0 0.0
2014-Oct-21 23:14N 44°03' E 009°51'0 0.0
2014-Oct-21 22:32N 44°03' E 009°51'0 0.0
2014-Oct-21 21:29N 44°03' E 009°51'0 0.0
2014-Oct-21 20:32N 44°03' E 009°51'0 0.0
2014-Oct-21 19:23N 44°03' E 009°51'0 0.0
2014-Oct-21 18:32N 44°03' E 009°51'0 0.0
2014-Oct-21 17:29N 44°03' E 009°51'0 0.0
2014-Oct-21 16:32N 44°03' E 009°51'0 0.0
2014-Oct-21 15:17N 44°03' E 009°51'  

Dump ship's entire track history